Altamont, South Dakota
Current Conditions -  °F | °C
As of 10:54 PM on Friday 21 Nov 2014 (Local Time) from KCNB Reporting Station
Overcast Overcast  
Wind Chill: 37°   Ceiling: 12000
Heat Index: 37°   Visibility: 10mi
Dew Point: 31°   Wind: 0mph
Humidity: 80%   Direction: NA
Pressure: 29.8"   Gusts: NA
Location:  44.7895°N, 96.7201°W
Report Text: KCNB 220454Z AUTO 00000KT 10SM OVC120 03/M01 A2980 RMK AO2 T00251006
Loading
Personal Weather Stations






























Interactive Weather Map New forecast layout! Learn more

10-Day Weather Forecast

Advertisements
Track Severe Weather on mobile